createdAt,value
2023-05-09T00:00:06.469Z,101020.31
2023-05-09T00:02:34.861Z,101011.25
2023-05-09T00:05:02.835Z,101013.06
2023-05-09T00:07:30.216Z,101018.72
2023-05-09T00:09:57.357Z,101022.81
2023-05-09T00:12:24.318Z,101013.50
2023-05-09T00:14:51.935Z,101012.19
2023-05-09T00:17:19.725Z,101014.25
2023-05-09T00:19:47.843Z,101011.84
2023-05-09T00:22:17.360Z,101013.38
2023-05-09T00:24:44.281Z,101015.13
2023-05-09T00:27:11.915Z,101014.09
2023-05-09T00:29:39.570Z,101017.81
2023-05-09T00:32:07.467Z,101013.53
2023-05-09T00:34:34.295Z,101013.66
2023-05-09T00:37:02.067Z,101008.91
2023-05-09T00:39:29.245Z,101015.13
2023-05-09T00:41:57.503Z,101008.59
2023-05-09T00:44:24.346Z,101007.59
2023-05-09T00:46:51.280Z,100999.94
2023-05-09T00:49:18.240Z,101001.53
2023-05-09T00:51:47.498Z,100996.47
2023-05-09T00:54:14.702Z,100997.50
2023-05-09T00:56:42.522Z,100998.09
2023-05-09T00:59:09.363Z,100992.31
2023-05-09T01:01:36.735Z,100997.38
2023-05-09T01:04:03.774Z,101001.44
2023-05-09T01:07:02.651Z,100998.56
2023-05-09T01:10:06.711Z,100991.25
2023-05-09T01:12:42.778Z,100990.06
2023-05-09T01:15:21.777Z,100987.97
2023-05-09T01:17:51.519Z,100982.78
2023-05-09T01:20:40.190Z,101000.94
2023-05-09T01:23:25.343Z,100990.97
2023-05-09T01:26:19.430Z,100987.75
2023-05-09T01:29:19.206Z,100980.88
2023-05-09T01:31:49.236Z,100975.00
2023-05-09T01:34:18.427Z,100982.88
2023-05-09T01:36:50.316Z,100981.84
2023-05-09T01:39:19.897Z,100980.03
2023-05-09T01:41:49.796Z,100975.44
2023-05-09T01:44:18.056Z,100972.84
2023-05-09T01:46:46.797Z,100978.03
2023-05-09T01:49:16.883Z,100975.38
2023-05-09T01:51:45.392Z,100981.16
2023-05-09T01:54:14.310Z,100979.22
2023-05-09T01:56:43.527Z,100963.09
2023-05-09T01:59:16.327Z,100978.53
2023-05-09T02:01:45.999Z,100978.06
2023-05-09T02:04:16.187Z,100978.44
2023-05-09T02:06:44.869Z,100976.56
2023-05-09T02:09:13.203Z,100975.38
2023-05-09T02:11:40.991Z,100981.63
2023-05-09T02:14:08.193Z,100975.81
2023-05-09T02:16:35.942Z,100982.03
2023-05-09T02:19:03.898Z,100972.59
2023-05-09T02:21:32.035Z,100974.09
2023-05-09T02:23:59.140Z,100974.34
2023-05-09T02:26:28.598Z,100972.66
2023-05-09T02:28:56.177Z,100966.94
2023-05-09T02:31:25.892Z,100965.50
2023-05-09T02:33:55.116Z,100971.03
2023-05-09T02:36:24.566Z,100966.47
2023-05-09T02:38:52.782Z,100971.97
2023-05-09T02:41:20.528Z,100969.25
2023-05-09T02:43:48.122Z,100970.88
2023-05-09T02:46:15.421Z,100973.25
2023-05-09T02:48:42.303Z,100961.88
2023-05-09T02:51:09.949Z,100962.16
2023-05-09T02:53:37.049Z,100974.03
2023-05-09T02:56:04.150Z,100971.50
2023-05-09T02:58:31.142Z,100968.09
2023-05-09T03:00:57.840Z,100973.00
2023-05-09T03:03:25.644Z,100967.69
2023-05-09T03:05:52.599Z,100981.69
2023-05-09T03:08:19.770Z,100981.69
2023-05-09T03:10:47.794Z,100986.22
2023-05-09T03:13:15.504Z,100986.03
2023-05-09T03:15:42.823Z,100983.16
2023-05-09T03:18:09.721Z,100988.72
2023-05-09T03:20:36.726Z,100990.31
2023-05-09T03:23:03.888Z,100995.03
2023-05-09T03:25:30.881Z,100987.19
2023-05-09T03:27:57.682Z,100986.53
2023-05-09T03:30:24.617Z,100986.78
2023-05-09T03:32:51.925Z,100988.06
2023-05-09T03:35:19.905Z,100990.25
2023-05-09T03:37:46.753Z,100989.44
2023-05-09T03:40:13.707Z,100995.94
2023-05-09T03:42:40.669Z,101001.91
2023-05-09T03:45:08.227Z,100992.47
2023-05-09T03:47:35.159Z,100995.09
2023-05-09T03:50:04.329Z,100992.84
2023-05-09T03:52:31.172Z,100999.56
2023-05-09T03:54:58.082Z,100994.63
2023-05-09T03:57:25.038Z,101004.41
2023-05-09T03:59:52.880Z,101006.78
2023-05-09T04:02:19.859Z,101004.88
2023-05-09T04:04:47.397Z,101006.91
2023-05-09T04:07:14.447Z,101004.78
2023-05-09T04:09:43.236Z,100999.06
2023-05-09T04:12:11.157Z,101000.44
2023-05-09T04:14:39.571Z,101003.19
2023-05-09T04:17:07.536Z,101010.59
2023-05-09T04:19:35.472Z,101007.78
2023-05-09T04:22:03.229Z,101008.44
2023-05-09T04:24:30.564Z,101007.91
2023-05-09T04:26:58.007Z,101016.00
2023-05-09T04:29:24.842Z,101013.69
2023-05-09T04:31:52.866Z,101015.53
2023-05-09T04:34:20.043Z,101021.00
2023-05-09T04:36:48.181Z,101019.50
2023-05-09T04:39:15.905Z,101010.22
2023-05-09T04:41:44.565Z,101007.91
2023-05-09T04:44:11.703Z,101009.94
2023-05-09T04:46:39.573Z,101016.97
2023-05-09T04:49:07.331Z,101028.53
2023-05-09T04:51:34.167Z,101015.84
2023-05-09T04:54:01.004Z,101012.50
2023-05-09T04:56:28.693Z,101010.75
2023-05-09T04:58:55.808Z,101004.47
2023-05-09T05:01:22.804Z,101013.69
2023-05-09T05:03:50.576Z,101016.03
2023-05-09T05:06:17.549Z,101011.91
2023-05-09T05:08:45.167Z,101016.63
2023-05-09T05:11:13.889Z,101010.91
2023-05-09T05:13:40.836Z,101006.38
2023-05-09T05:16:08.501Z,101003.81
2023-05-09T05:18:35.512Z,101001.16
2023-05-09T05:21:02.529Z,100998.09
2023-05-09T05:23:29.502Z,101004.19
2023-05-09T05:25:58.330Z,101003.81
2023-05-09T05:28:25.370Z,101009.81
2023-05-09T05:30:52.332Z,101000.06
2023-05-09T05:33:19.951Z,100998.97
2023-05-09T05:35:46.871Z,101000.38
2023-05-09T05:38:14.107Z,100999.66
2023-05-09T05:40:41.784Z,100999.09
2023-05-09T05:43:09.417Z,100994.72
2023-05-09T05:45:36.369Z,100996.88
2023-05-09T05:48:03.707Z,100996.72
2023-05-09T05:50:31.605Z,100996.03
2023-05-09T05:52:58.528Z,100991.22
2023-05-09T05:55:26.426Z,100994.38
2023-05-09T05:57:54.403Z,100990.09
2023-05-09T06:00:22.252Z,100987.03
2023-05-09T06:02:49.292Z,100983.25
2023-05-09T06:05:17.215Z,100981.47
2023-05-09T06:07:46.873Z,100980.19
2023-05-09T06:10:15.962Z,100977.59
2023-05-09T06:12:43.801Z,100982.16
2023-05-09T06:15:11.779Z,100975.81
2023-05-09T06:17:38.649Z,100980.31
2023-05-09T06:20:06.377Z,100978.06
2023-05-09T06:22:33.280Z,100980.19
2023-05-09T06:25:00.155Z,100980.16
2023-05-09T06:27:27.859Z,100979.31
2023-05-09T06:29:54.669Z,100973.75
2023-05-09T06:32:21.413Z,100973.19
2023-05-09T06:34:48.415Z,100971.56
2023-05-09T06:37:16.272Z,100967.63
2023-05-09T06:39:43.341Z,100971.41
2023-05-09T06:42:10.339Z,100956.88
2023-05-09T06:44:37.474Z,100965.53
2023-05-09T06:47:05.297Z,100959.63
2023-05-09T06:49:32.112Z,100962.69
2023-05-09T06:51:58.877Z,100974.25
2023-05-09T06:54:26.625Z,100964.97
2023-05-09T06:56:53.750Z,100960.59
2023-05-09T06:59:21.382Z,100962.84
2023-05-09T07:01:49.196Z,100955.81
2023-05-09T07:04:16.073Z,100953.59
2023-05-09T07:06:43.085Z,100955.56
2023-05-09T07:09:10.107Z,100954.03
2023-05-09T07:11:37.970Z,100943.66
2023-05-09T07:14:05.784Z,100951.66
2023-05-09T07:16:33.663Z,100947.34
2023-05-09T07:19:02.113Z,100931.88
2023-05-09T07:21:29.805Z,100944.06
2023-05-09T07:23:57.483Z,100945.75
2023-05-09T07:26:25.117Z,100953.56
2023-05-09T07:28:54.123Z,100949.34
2023-05-09T07:31:20.948Z,100952.03
2023-05-09T07:33:48.560Z,100943.44
2023-05-09T07:36:17.052Z,100931.38
2023-05-09T07:38:43.791Z,100931.38
2023-05-09T07:41:10.729Z,100928.78
2023-05-09T07:43:37.614Z,100927.16
2023-05-09T07:46:04.906Z,100938.56
2023-05-09T07:48:32.032Z,100935.97
2023-05-09T07:50:59.093Z,100939.47
2023-05-09T07:53:25.818Z,100936.91
2023-05-09T07:55:52.966Z,100928.16
2023-05-09T07:58:20.682Z,100930.75
2023-05-09T08:00:47.517Z,100929.06
2023-05-09T08:03:15.427Z,100928.19
2023-05-09T08:05:43.358Z,100936.09
2023-05-09T08:08:10.183Z,100938.66
2023-05-09T08:10:38.045Z,100930.84
2023-05-09T08:13:05.847Z,100926.50
2023-05-09T08:15:32.770Z,100921.22
2023-05-09T08:17:59.729Z,100919.50
2023-05-09T08:20:26.456Z,100916.84
2023-05-09T08:22:54.028Z,100930.41
2023-05-09T08:25:21.701Z,100927.94
2023-05-09T08:27:48.821Z,100925.44
2023-05-09T08:30:16.510Z,100927.25
2023-05-09T08:32:43.420Z,100908.09
2023-05-09T08:35:12.645Z,100903.75
2023-05-09T08:37:39.534Z,100910.78
2023-05-09T08:40:08.773Z,100913.44
2023-05-09T08:42:37.590Z,100912.56
2023-05-09T08:45:12.353Z,100910.84
2023-05-09T08:47:39.475Z,100911.66
2023-05-09T08:50:07.681Z,100901.06
2023-05-09T08:52:35.306Z,100900.09
2023-05-09T08:55:05.963Z,100905.38
2023-05-09T08:57:36.971Z,100910.81
2023-05-09T09:00:11.214Z,100909.00
2023-05-09T09:02:41.793Z,100907.16
2023-05-09T09:05:16.385Z,100909.69
2023-05-09T09:07:57.851Z,100910.84
2023-05-09T09:10:27.339Z,100910.81
2023-05-09T09:12:54.699Z,100904.50
2023-05-09T09:15:24.325Z,100900.97
2023-05-09T09:17:54.088Z,100901.84
2023-05-09T09:20:23.495Z,100908.78
2023-05-09T09:22:52.455Z,100899.91
2023-05-09T09:25:22.740Z,100896.94
2023-05-09T09:27:54.291Z,100889.47
2023-05-09T09:30:25.112Z,100891.41
2023-05-09T09:32:52.254Z,100885.59
2023-05-09T09:35:20.276Z,100888.75
2023-05-09T09:37:47.183Z,100885.31
2023-05-09T09:40:14.835Z,100886.75
2023-05-09T09:42:47.353Z,100893.56
2023-05-09T09:45:17.202Z,100883.56
2023-05-09T09:47:47.885Z,100884.84
2023-05-09T09:50:17.411Z,100888.78
2023-05-09T09:52:51.587Z,100894.59
2023-05-09T09:55:20.121Z,100873.25
2023-05-09T09:57:48.336Z,100880.09
2023-05-09T10:00:19.297Z,100881.63
2023-05-09T10:02:57.199Z,100886.59
2023-05-09T10:05:29.834Z,100880.97
2023-05-09T10:08:00.690Z,100877.22
2023-05-09T10:10:32.117Z,100879.22
2023-05-09T10:13:03.531Z,100871.66
2023-05-09T10:15:41.436Z,100869.47
2023-05-09T10:18:20.277Z,100876.19
2023-05-09T10:20:48.179Z,100865.84
2023-05-09T10:23:18.373Z,100864.97
2023-05-09T10:26:00.466Z,100869.69
2023-05-09T10:28:34.001Z,100870.03
2023-05-09T10:31:18.823Z,100861.16
2023-05-09T10:33:50.582Z,100851.59
2023-05-09T10:36:21.468Z,100856.31
2023-05-09T10:38:53.931Z,100862.28
2023-05-09T10:41:23.761Z,100853.72
2023-05-09T10:43:51.836Z,100859.59
2023-05-09T10:46:20.015Z,100856.56
2023-05-09T10:48:48.550Z,100855.63
2023-05-09T10:51:17.771Z,100846.94
2023-05-09T10:53:50.210Z,100852.19
2023-05-09T10:56:30.244Z,100846.63
2023-05-09T10:58:57.496Z,100844.25
2023-05-09T11:01:39.328Z,100846.22
2023-05-09T11:04:10.406Z,100836.19
2023-05-09T11:06:44.126Z,100836.22
2023-05-09T11:09:33.822Z,100841.56
2023-05-09T11:12:12.724Z,100829.81
2023-05-09T11:14:43.079Z,100827.72
2023-05-09T11:17:27.545Z,100830.34
2023-05-09T11:20:06.658Z,100827.13
2023-05-09T11:22:45.119Z,100828.66
2023-05-09T11:25:17.076Z,100817.56
2023-05-09T11:27:52.389Z,100820.25
2023-05-09T11:30:21.071Z,100821.66
2023-05-09T11:32:55.240Z,100815.06
2023-05-09T11:35:26.931Z,100810.88
2023-05-09T11:38:01.758Z,100806.84
2023-05-09T11:40:32.095Z,100797.59
2023-05-09T11:43:02.019Z,100802.88
2023-05-09T11:45:31.812Z,100795.47
2023-05-09T11:48:04.190Z,100794.41
2023-05-09T11:50:33.223Z,100787.88
2023-05-09T11:53:01.967Z,100796.44
2023-05-09T11:55:31.604Z,100803.31
2023-05-09T11:58:00.384Z,100797.63
2023-05-09T12:00:28.103Z,100791.28
2023-05-09T12:02:55.958Z,100786.13
2023-05-09T12:05:25.006Z,100784.44
2023-05-09T12:07:53.732Z,100784.25
2023-05-09T12:10:23.266Z,100785.09
2023-05-09T12:12:53.187Z,100787.34
2023-05-09T12:15:22.401Z,100774.34
2023-05-09T12:18:08.106Z,100782.16
2023-05-09T12:20:46.117Z,100782.22
2023-05-09T12:23:15.407Z,100772.41
2023-05-09T12:25:53.826Z,100766.56
2023-05-09T12:28:25.317Z,100753.53
2023-05-09T12:30:54.014Z,100763.69
2023-05-09T12:33:22.596Z,100750.91
2023-05-09T12:36:06.092Z,100750.53
2023-05-09T12:38:34.132Z,100748.63
2023-05-09T12:41:04.041Z,100748.16
2023-05-09T12:43:37.955Z,100742.09
2023-05-09T12:46:05.883Z,100748.72
2023-05-09T12:48:38.571Z,100740.31
2023-05-09T12:51:07.415Z,100732.63
2023-05-09T12:53:41.302Z,100734.50
2023-05-09T12:56:23.556Z,100721.44
2023-05-09T12:58:55.631Z,100722.66
2023-05-09T13:01:32.241Z,100724.06
2023-05-09T13:04:03.909Z,100727.97
2023-05-09T13:06:32.460Z,100726.50
2023-05-09T13:09:02.953Z,100715.75
2023-05-09T13:11:30.847Z,100716.16
2023-05-09T13:13:58.912Z,100702.94
2023-05-09T13:16:27.954Z,100714.59
2023-05-09T13:18:55.465Z,100704.63
2023-05-09T13:21:22.960Z,100710.03
2023-05-09T13:23:51.323Z,100704.09
2023-05-09T13:26:20.244Z,100698.63
2023-05-09T13:28:47.729Z,100697.44
2023-05-09T13:31:15.328Z,100697.44
2023-05-09T13:33:43.212Z,100692.66
2023-05-09T13:36:11.014Z,100678.19
2023-05-09T13:38:40.900Z,100684.78
2023-05-09T13:41:09.498Z,100680.72
2023-05-09T13:43:37.708Z,100685.66
2023-05-09T13:46:05.382Z,100687.22
2023-05-09T13:48:33.919Z,100688.34
2023-05-09T13:51:01.592Z,100684.41
2023-05-09T13:53:29.197Z,100677.41
2023-05-09T13:55:57.249Z,100670.31
2023-05-09T13:58:24.946Z,100654.31
2023-05-09T14:00:52.413Z,100664.59
2023-05-09T14:03:19.904Z,100667.53
2023-05-09T14:05:48.236Z,100664.84
2023-05-09T14:08:17.207Z,100659.81
2023-05-09T14:10:44.830Z,100658.72
2023-05-09T14:13:15.637Z,100659.66
2023-05-09T14:15:43.205Z,100662.03
2023-05-09T14:18:11.851Z,100666.59
2023-05-09T14:20:40.833Z,100650.31
2023-05-09T14:23:08.351Z,100654.84
2023-05-09T14:25:37.059Z,100663.59
2023-05-09T14:28:09.003Z,100659.94
2023-05-09T14:30:36.720Z,100662.75
2023-05-09T14:33:04.342Z,100659.66
2023-05-09T14:35:34.357Z,100664.25
2023-05-09T14:38:02.797Z,100661.00
2023-05-09T14:40:32.103Z,100653.38
2023-05-09T14:43:04.339Z,100655.69
2023-05-09T14:45:33.466Z,100652.44
2023-05-09T14:48:03.429Z,100653.69
2023-05-09T14:50:31.431Z,100650.31
2023-05-09T14:52:59.971Z,100648.94
2023-05-09T14:55:28.063Z,100652.25
2023-05-09T14:57:55.521Z,100648.72
2023-05-09T15:00:24.603Z,100644.72
2023-05-09T15:02:53.058Z,100643.13
2023-05-09T15:05:20.911Z,100641.00
2023-05-09T15:07:48.489Z,100643.09
2023-05-09T15:10:17.339Z,100635.97
2023-05-09T15:12:46.329Z,100631.25
2023-05-09T15:15:15.598Z,100629.91
2023-05-09T15:17:44.548Z,100635.16
2023-05-09T15:20:20.504Z,100633.94
2023-05-09T15:22:50.000Z,100627.66
2023-05-09T15:25:19.788Z,100621.56
2023-05-09T15:27:50.636Z,100622.34
2023-05-09T15:30:18.321Z,100623.22
2023-05-09T15:32:47.256Z,100619.84
2023-05-09T15:35:16.025Z,100619.97
2023-05-09T15:37:45.679Z,100606.69
2023-05-09T15:40:14.861Z,100617.34
2023-05-09T15:42:44.091Z,100613.47
2023-05-09T15:45:12.873Z,100621.53
2023-05-09T15:47:42.071Z,100627.38
2023-05-09T15:50:11.005Z,100618.47
2023-05-09T15:52:38.740Z,100620.75
2023-05-09T15:55:07.308Z,100609.19
2023-05-09T15:57:35.983Z,100604.13
2023-05-09T16:00:06.147Z,100607.72
2023-05-09T16:02:36.121Z,100602.16
2023-05-09T16:05:03.753Z,100596.78
2023-05-09T16:07:33.316Z,100597.13
2023-05-09T16:10:03.506Z,100599.78
2023-05-09T16:12:33.094Z,100600.78
2023-05-09T16:15:02.054Z,100611.06
2023-05-09T16:17:29.909Z,100605.13
2023-05-09T16:19:58.961Z,100603.13
2023-05-09T16:22:27.184Z,100592.59
2023-05-09T16:24:55.700Z,100604.16
2023-05-09T16:27:23.566Z,100601.16
2023-05-09T16:29:52.607Z,100598.81
2023-05-09T16:32:20.070Z,100596.19
2023-05-09T16:34:47.635Z,100591.25
2023-05-09T16:37:16.553Z,100608.31
2023-05-09T16:39:44.179Z,100599.09
2023-05-09T16:42:12.856Z,100586.53
2023-05-09T16:44:40.310Z,100592.94
2023-05-09T16:47:08.058Z,100579.63
2023-05-09T16:49:36.077Z,100587.16
2023-05-09T16:52:04.861Z,100591.59
2023-05-09T16:54:33.568Z,100585.00
2023-05-09T16:57:01.053Z,100582.84
2023-05-09T16:59:28.679Z,100584.19
2023-05-09T17:01:57.949Z,100586.13
2023-05-09T17:04:25.944Z,100592.50
2023-05-09T17:06:54.772Z,100585.53
2023-05-09T17:09:22.672Z,100583.78
2023-05-09T17:11:50.391Z,100591.56
2023-05-09T17:14:19.136Z,100601.66
2023-05-09T17:16:46.816Z,100594.22
2023-05-09T17:19:16.124Z,100589.78
2023-05-09T17:21:43.778Z,100591.84
2023-05-09T17:24:11.426Z,100595.78
2023-05-09T17:26:42.020Z,100600.66
2023-05-09T17:29:12.719Z,100590.00
2023-05-09T17:31:40.281Z,100603.41
2023-05-09T17:34:09.116Z,100596.75
2023-05-09T17:36:36.772Z,100606.50
2023-05-09T17:39:04.860Z,100608.06
2023-05-09T17:41:32.452Z,100603.97
2023-05-09T17:43:59.893Z,100602.88
2023-05-09T17:46:27.588Z,100608.44
2023-05-09T17:48:56.831Z,100613.19
2023-05-09T17:51:24.559Z,100615.91
2023-05-09T17:53:53.013Z,100613.00
2023-05-09T17:56:34.414Z,100604.53
2023-05-09T17:59:02.322Z,100605.88
2023-05-09T18:01:30.008Z,100609.88
2023-05-09T18:03:57.246Z,100602.03
2023-05-09T18:06:26.603Z,100612.44
2023-05-09T18:08:53.791Z,100616.03
2023-05-09T18:11:23.242Z,100615.00
2023-05-09T18:13:50.997Z,100611.16
2023-05-09T18:16:18.927Z,100608.44
2023-05-09T18:18:46.678Z,100619.81
2023-05-09T18:21:15.609Z,100622.28
2023-05-09T18:23:44.454Z,100614.53
2023-05-09T18:26:12.224Z,100623.09
2023-05-09T18:28:41.875Z,100632.31
2023-05-09T18:31:11.922Z,100639.22
2023-05-09T18:33:39.845Z,100644.16
2023-05-09T18:36:11.683Z,100653.81
2023-05-09T18:38:39.010Z,100649.06
2023-05-09T18:41:08.514Z,100665.34
2023-05-09T18:43:37.616Z,100662.16
2023-05-09T18:46:05.379Z,100666.78
2023-05-09T18:48:36.973Z,100692.13
2023-05-09T18:51:06.229Z,100683.53
2023-05-09T18:53:33.068Z,100685.38
2023-05-09T18:56:00.148Z,100698.66
2023-05-09T18:58:28.164Z,100679.44
2023-05-09T19:00:56.769Z,100688.16
2023-05-09T19:03:25.337Z,100696.09
2023-05-09T19:05:55.185Z,100692.72
2023-05-09T19:08:22.146Z,100686.47
2023-05-09T19:10:52.501Z,100689.03
2023-05-09T19:13:20.198Z,100691.56
2023-05-09T19:15:50.619Z,100684.50
2023-05-09T19:18:18.344Z,100684.41
2023-05-09T19:20:45.210Z,100702.91
2023-05-09T19:23:12.223Z,100685.47
2023-05-09T19:25:39.185Z,100688.28
2023-05-09T19:28:06.461Z,100691.88
2023-05-09T19:30:34.336Z,100698.22
2023-05-09T19:33:01.437Z,100693.88
2023-05-09T19:35:28.400Z,100689.50
2023-05-09T19:37:55.477Z,100693.03
2023-05-09T19:40:22.400Z,100685.22
2023-05-09T19:42:49.386Z,100701.84
2023-05-09T19:45:16.966Z,100696.59
2023-05-09T19:47:43.881Z,100692.16
2023-05-09T19:50:11.118Z,100693.06
2023-05-09T19:52:38.305Z,100696.59
2023-05-09T19:55:07.636Z,100690.50
2023-05-09T19:57:34.550Z,100692.28
2023-05-09T20:00:01.444Z,100692.31
2023-05-09T20:02:28.561Z,100700.13
2023-05-09T20:04:55.508Z,100701.91
2023-05-09T20:07:26.508Z,100693.09
2023-05-09T20:09:55.092Z,100696.66
2023-05-09T20:12:22.872Z,100708.81
2023-05-09T20:14:49.665Z,100697.44
2023-05-09T20:17:18.574Z,100713.97
2023-05-09T20:19:46.207Z,100703.50
2023-05-09T20:22:13.885Z,100710.53
2023-05-09T20:24:41.657Z,100713.94
2023-05-09T20:27:10.469Z,100703.50
2023-05-09T20:29:39.328Z,100701.75
2023-05-09T20:32:06.493Z,100706.06
2023-05-09T20:34:35.385Z,100704.41
2023-05-09T20:37:02.514Z,100702.63
2023-05-09T20:39:31.746Z,100707.03
2023-05-09T20:42:02.663Z,100703.53
2023-05-09T20:44:30.533Z,100701.72
2023-05-09T20:46:57.322Z,100692.97
2023-05-09T20:49:26.022Z,100701.75
2023-05-09T20:51:56.527Z,100697.34
2023-05-09T20:54:26.029Z,100687.78
2023-05-09T20:56:53.018Z,100693.00
2023-05-09T20:59:20.030Z,100680.00
2023-05-09T21:01:47.015Z,100679.22
2023-05-09T21:04:15.922Z,100680.91
2023-05-09T21:06:42.954Z,100687.06
2023-05-09T21:09:10.409Z,100681.81
2023-05-09T21:11:41.551Z,100681.75
2023-05-09T21:14:08.985Z,100682.69
2023-05-09T21:16:35.991Z,100675.69
2023-05-09T21:19:05.328Z,100669.56
2023-05-09T21:21:34.510Z,100677.41
2023-05-09T21:24:09.215Z,100674.81
2023-05-09T21:26:37.768Z,100673.94
2023-05-09T21:29:05.383Z,100674.81
2023-05-09T21:31:34.629Z,100674.78
2023-05-09T21:34:10.287Z,100674.78
2023-05-09T21:36:40.551Z,100676.53
2023-05-09T21:39:11.933Z,100673.94
2023-05-09T21:41:43.038Z,100675.69
2023-05-09T21:44:12.725Z,100670.44
2023-05-09T21:46:40.530Z,100678.22
2023-05-09T21:49:09.348Z,100680.88
2023-05-09T21:51:37.196Z,100670.34
2023-05-09T21:54:06.490Z,100678.25
2023-05-09T21:56:33.504Z,100676.47
2023-05-09T21:59:03.279Z,100667.75
2023-05-09T22:01:32.036Z,100667.75
2023-05-09T22:03:59.183Z,100667.63
2023-05-09T22:06:26.869Z,100658.00
2023-05-09T22:08:55.619Z,100674.63
2023-05-09T22:11:22.581Z,100671.97
2023-05-09T22:13:51.300Z,100672.88
2023-05-09T22:16:20.127Z,100674.63
2023-05-09T22:18:47.076Z,100671.13
2023-05-09T22:21:14.774Z,100671.13
2023-05-09T22:23:41.738Z,100662.38
2023-05-09T22:26:08.688Z,100658.88
2023-05-09T22:28:36.393Z,100665.03
2023-05-09T22:31:07.146Z,100661.66
2023-05-09T22:33:34.707Z,100663.41
2023-05-09T22:36:01.814Z,100655.56
2023-05-09T22:38:30.190Z,100652.09
2023-05-09T22:40:59.147Z,100661.72
2023-05-09T22:43:36.531Z,100647.78
2023-05-09T22:46:06.323Z,100652.94
2023-05-09T22:48:35.103Z,100654.72
2023-05-09T22:51:04.066Z,100655.56
2023-05-09T22:56:18.118Z,100648.59
2023-05-09T22:58:46.894Z,100641.63
2023-05-09T23:01:13.775Z,100652.09
2023-05-09T23:03:41.763Z,100646.00
2023-05-09T23:06:12.349Z,100639.91
2023-05-09T23:08:41.261Z,100639.00
2023-05-09T23:11:09.530Z,100643.38
2023-05-09T23:13:37.198Z,100632.03
2023-05-09T23:16:04.152Z,100632.00
2023-05-09T23:18:31.181Z,100631.13
2023-05-09T23:20:58.826Z,100623.28
2023-05-09T23:23:27.549Z,100623.28
2023-05-09T23:25:57.110Z,100616.31
2023-05-09T23:28:26.631Z,100616.28
2023-05-09T23:30:54.737Z,100620.66
2023-05-09T23:33:22.532Z,100618.03
2023-05-09T23:35:49.408Z,100618.03
2023-05-09T23:38:17.382Z,100624.16
2023-05-09T23:40:46.241Z,100618.91
2023-05-09T23:43:14.216Z,100611.91
2023-05-09T23:45:41.226Z,100610.16
2023-05-09T23:48:08.239Z,100606.66
2023-05-09T23:50:35.992Z,100596.19
2023-05-09T23:53:05.127Z,100604.06
2023-05-09T23:55:32.040Z,100602.34
2023-05-09T23:58:00.897Z,100601.44
